sensor_id;sensor_type;location;lat;lon;timestamp;pressure;altitude;pressure_sealevel;temperature;humidity
74913;BME280;63878;55.624;37.304;2023-03-01T00:08:59;98165.69;;;-8.00;47.55
74913;BME280;63878;55.624;37.304;2023-03-01T00:18:59;98160.19;;;-8.18;47.87
74913;BME280;63878;55.624;37.304;2023-03-01T00:29:00;98164.09;;;-8.34;49.02
74913;BME280;63878;55.624;37.304;2023-03-01T00:39:01;98161.09;;;-8.50;49.28
74913;BME280;63878;55.624;37.304;2023-03-01T00:49:02;98140.56;;;-8.47;49.30
74913;BME280;63878;55.624;37.304;2023-03-01T00:59:03;98142.28;;;-8.49;49.70
74913;BME280;63878;55.624;37.304;2023-03-01T01:09:05;98146.72;;;-8.54;49.39
74913;BME280;63878;55.624;37.304;2023-03-01T01:19:06;98131.28;;;-8.84;50.10
74913;BME280;63878;55.624;37.304;2023-03-01T01:29:07;98144.56;;;-8.69;51.57
74913;BME280;63878;55.624;37.304;2023-03-01T01:39:08;98148.81;;;-8.70;50.97
74913;BME280;63878;55.624;37.304;2023-03-01T01:59:18;98146.22;;;-8.67;51.40
74913;BME280;63878;55.624;37.304;2023-03-01T02:09:21;98131.31;;;-8.52;50.66
74913;BME280;63878;55.624;37.304;2023-03-01T02:29:45;98121.53;;;-9.00;53.09
74913;BME280;63878;55.624;37.304;2023-03-01T02:39:48;98143.50;;;-8.93;54.34
74913;BME280;63878;55.624;37.304;2023-03-01T02:49:50;98148.50;;;-8.90;54.12
74913;BME280;63878;55.624;37.304;2023-03-01T02:59:52;98145.81;;;-9.18;55.00
74913;BME280;63878;55.624;37.304;2023-03-01T03:09:54;98150.34;;;-8.95;54.83
74913;BME280;63878;55.624;37.304;2023-03-01T03:19:55;98159.09;;;-9.04;54.88
74913;BME280;63878;55.624;37.304;2023-03-01T03:29:55;98157.50;;;-9.44;56.44
74913;BME280;63878;55.624;37.304;2023-03-01T03:39:56;98176.31;;;-9.46;55.99
74913;BME280;63878;55.624;37.304;2023-03-01T03:49:56;98171.94;;;-9.43;56.44
74913;BME280;63878;55.624;37.304;2023-03-01T03:59:57;98171.69;;;-9.68;56.48
74913;BME280;63878;55.624;37.304;2023-03-01T04:09:58;98187.91;;;-9.70;56.92
74913;BME280;63878;55.624;37.304;2023-03-01T04:19:58;98183.06;;;-9.82;57.39
74913;BME280;63878;55.624;37.304;2023-03-01T04:29:59;98193.38;;;-9.87;57.56
74913;BME280;63878;55.624;37.304;2023-03-01T04:40:00;98189.16;;;-9.89;57.80
74913;BME280;63878;55.624;37.304;2023-03-01T04:50:00;98199.25;;;-9.45;56.33
74913;BME280;63878;55.624;37.304;2023-03-01T05:00:03;98202.69;;;-9.46;56.46
74913;BME280;63878;55.624;37.304;2023-03-01T05:10:04;98207.34;;;-9.26;55.99
74913;BME280;63878;55.624;37.304;2023-03-01T05:20:05;98215.06;;;-9.29;55.84
74913;BME280;63878;55.624;37.304;2023-03-01T05:30:06;98207.44;;;-9.30;55.03
74913;BME280;63878;55.624;37.304;2023-03-01T05:40:09;98224.13;;;-9.14;55.71
74913;BME280;63878;55.624;37.304;2023-03-01T05:50:19;98235.47;;;-9.64;55.71
74913;BME280;63878;55.624;37.304;2023-03-01T06:00:20;98238.06;;;-9.27;55.32
74913;BME280;63878;55.624;37.304;2023-03-01T06:10:22;98248.84;;;-9.16;54.84
74913;BME280;63878;55.624;37.304;2023-03-01T06:20:24;98257.31;;;-9.13;54.96
74913;BME280;63878;55.624;37.304;2023-03-01T06:30:26;98269.50;;;-8.88;54.39
74913;BME280;63878;55.624;37.304;2023-03-01T06:40:27;98274.22;;;-9.07;54.75
74913;BME280;63878;55.624;37.304;2023-03-01T06:50:27;98279.34;;;-9.08;54.88
74913;BME280;63878;55.624;37.304;2023-03-01T07:00:28;98289.41;;;-8.65;53.72
74913;BME280;63878;55.624;37.304;2023-03-01T07:10:29;98294.97;;;-8.84;53.85
74913;BME280;63878;55.624;37.304;2023-03-01T07:20:29;98304.91;;;-8.71;54.26
74913;BME280;63878;55.624;37.304;2023-03-01T07:30:30;98297.81;;;-8.60;54.50
74913;BME280;63878;55.624;37.304;2023-03-01T07:40:30;98305.97;;;-8.12;53.68
74913;BME280;63878;55.624;37.304;2023-03-01T07:50:31;98327.44;;;-8.17;53.00
74913;BME280;63878;55.624;37.304;2023-03-01T08:00:31;98325.50;;;-8.42;54.29
74913;BME280;63878;55.624;37.304;2023-03-01T08:10:32;98313.03;;;-7.89;53.32
74913;BME280;63878;55.624;37.304;2023-03-01T08:20:32;98315.69;;;-8.59;55.54
74913;BME280;63878;55.624;37.304;2023-03-01T08:30:34;98324.19;;;-8.58;55.23
74913;BME280;63878;55.624;37.304;2023-03-01T08:40:34;98333.34;;;-8.15;55.27
74913;BME280;63878;55.624;37.304;2023-03-01T08:50:35;98338.97;;;-8.34;56.17
74913;BME280;63878;55.624;37.304;2023-03-01T09:00:35;98337.03;;;-7.60;54.67
74913;BME280;63878;55.624;37.304;2023-03-01T09:10:39;98358.44;;;-7.32;53.84
74913;BME280;63878;55.624;37.304;2023-03-01T09:20:39;98367.19;;;-8.03;54.98
74913;BME280;63878;55.624;37.304;2023-03-01T09:30:40;98380.59;;;-7.93;55.37
74913;BME280;63878;55.624;37.304;2023-03-01T09:40:43;98378.66;;;-7.52;54.65
74913;BME280;63878;55.624;37.304;2023-03-01T09:50:44;98362.25;;;-7.78;55.07
74913;BME280;63878;55.624;37.304;2023-03-01T10:00:47;98378.41;;;-7.74;54.75
74913;BME280;63878;55.624;37.304;2023-03-01T10:10:50;98383.69;;;-7.49;54.88
74913;BME280;63878;55.624;37.304;2023-03-01T10:20:53;98382.72;;;-6.58;51.96
74913;BME280;63878;55.624;37.304;2023-03-01T10:30:54;98386.13;;;-6.57;50.03
74913;BME280;63878;55.624;37.304;2023-03-01T10:40:55;98396.28;;;-5.50;49.30
74913;BME280;63878;55.624;37.304;2023-03-01T11:01:00;98398.91;;;-6.84;49.64
74913;BME280;63878;55.624;37.304;2023-03-01T11:21:20;98351.34;;;-7.53;49.54
74913;BME280;63878;55.624;37.304;2023-03-01T11:31:22;98389.22;;;-6.74;49.71
74913;BME280;63878;55.624;37.304;2023-03-01T11:41:27;98382.81;;;-6.61;50.37
74913;BME280;63878;55.624;37.304;2023-03-01T12:12:29;98372.41;;;-5.53;46.88
74913;BME280;63878;55.624;37.304;2023-03-01T12:33:26;98405.09;;;-5.82;48.50
74913;BME280;63878;55.624;37.304;2023-03-01T12:53:35;98390.34;;;-6.28;48.74
74913;BME280;63878;55.624;37.304;2023-03-01T13:04:05;98409.66;;;-6.43;47.95
74913;BME280;63878;55.624;37.304;2023-03-01T13:24:39;98404.03;;;-6.01;47.31
74913;BME280;63878;55.624;37.304;2023-03-01T13:34:43;98399.06;;;-6.34;49.53
74913;BME280;63878;55.624;37.304;2023-03-01T13:44:46;98400.34;;;-6.19;46.92
74913;BME280;63878;55.624;37.304;2023-03-01T13:54:47;98398.28;;;-6.36;48.51
74913;BME280;63878;55.624;37.304;2023-03-01T14:05:01;98387.50;;;-6.74;47.81
74913;BME280;63878;55.624;37.304;2023-03-01T14:15:35;98372.88;;;-6.44;49.15
74913;BME280;63878;55.624;37.304;2023-03-01T14:25:47;98368.94;;;-6.55;50.63
74913;BME280;63878;55.624;37.304;2023-03-01T14:46:03;98350.59;;;-6.17;51.81
74913;BME280;63878;55.624;37.304;2023-03-01T14:56:03;98355.34;;;-5.79;52.13
74913;BME280;63878;55.624;37.304;2023-03-01T15:06:05;98347.78;;;-6.35;52.83
74913;BME280;63878;55.624;37.304;2023-03-01T15:16:15;98345.22;;;-6.35;52.95
74913;BME280;63878;55.624;37.304;2023-03-01T15:26:31;98346.81;;;-6.86;54.30
74913;BME280;63878;55.624;37.304;2023-03-01T15:46:45;98346.44;;;-6.74;55.72
74913;BME280;63878;55.624;37.304;2023-03-01T15:56:46;98351.41;;;-6.69;55.90
74913;BME280;63878;55.624;37.304;2023-03-01T16:06:47;98356.75;;;-6.49;55.31
74913;BME280;63878;55.624;37.304;2023-03-01T16:16:48;98340.63;;;-6.79;56.21
74913;BME280;63878;55.624;37.304;2023-03-01T16:26:48;98349.56;;;-6.92;56.72
74913;BME280;63878;55.624;37.304;2023-03-01T16:36:49;98342.59;;;-6.88;56.13
74913;BME280;63878;55.624;37.304;2023-03-01T16:46:50;98336.81;;;-6.95;57.52
74913;BME280;63878;55.624;37.304;2023-03-01T16:56:50;98332.41;;;-7.18;58.72
74913;BME280;63878;55.624;37.304;2023-03-01T17:06:51;98322.44;;;-7.29;59.04
74913;BME280;63878;55.624;37.304;2023-03-01T17:16:51;98321.25;;;-7.17;59.40
74913;BME280;63878;55.624;37.304;2023-03-01T17:26:52;98312.19;;;-7.29;60.11
74913;BME280;63878;55.624;37.304;2023-03-01T17:36:52;98282.72;;;-7.43;59.43
74913;BME280;63878;55.624;37.304;2023-03-01T17:46:53;98295.75;;;-7.51;59.75
74913;BME280;63878;55.624;37.304;2023-03-01T17:56:54;98291.78;;;-7.32;58.90
74913;BME280;63878;55.624;37.304;2023-03-01T18:06:54;98275.41;;;-7.28;59.86
74913;BME280;63878;55.624;37.304;2023-03-01T18:16:55;98270.78;;;-7.16;59.00
74913;BME280;63878;55.624;37.304;2023-03-01T18:26:55;98264.78;;;-7.43;60.22
74913;BME280;63878;55.624;37.304;2023-03-01T18:36:56;98253.91;;;-7.24;59.24
74913;BME280;63878;55.624;37.304;2023-03-01T18:46:56;98245.53;;;-7.29;59.53
74913;BME280;63878;55.624;37.304;2023-03-01T18:56:57;98239.19;;;-7.17;59.43
74913;BME280;63878;55.624;37.304;2023-03-01T19:06:58;98222.31;;;-7.52;60.62
74913;BME280;63878;55.624;37.304;2023-03-01T19:16:59;98180.91;;;-7.66;60.12
74913;BME280;63878;55.624;37.304;2023-03-01T19:27:00;98236.41;;;-7.37;60.48
74913;BME280;63878;55.624;37.304;2023-03-01T19:37:01;98222.97;;;-7.45;61.22
74913;BME280;63878;55.624;37.304;2023-03-01T19:47:02;98220.13;;;-7.36;62.26
74913;BME280;63878;55.624;37.304;2023-03-01T19:57:02;98219.56;;;-7.46;63.72
74913;BME280;63878;55.624;37.304;2023-03-01T20:07:03;98212.16;;;-7.55;66.90
74913;BME280;63878;55.624;37.304;2023-03-01T20:17:04;98202.91;;;-7.59;67.86
74913;BME280;63878;55.624;37.304;2023-03-01T20:27:04;98205.88;;;-7.73;69.93
74913;BME280;63878;55.624;37.304;2023-03-01T20:37:05;98185.88;;;-7.62;70.43
74913;BME280;63878;55.624;37.304;2023-03-01T20:47:05;98171.44;;;-7.64;69.20
74913;BME280;63878;55.624;37.304;2023-03-01T20:57:06;98178.66;;;-7.49;68.44
74913;BME280;63878;55.624;37.304;2023-03-01T21:07:06;98174.41;;;-7.50;67.61
74913;BME280;63878;55.624;37.304;2023-03-01T21:17:08;98180.50;;;-7.54;67.33
74913;BME280;63878;55.624;37.304;2023-03-01T21:27:09;98186.69;;;-7.61;67.61
74913;BME280;63878;55.624;37.304;2023-03-01T21:37:10;98174.09;;;-7.67;68.91
74913;BME280;63878;55.624;37.304;2023-03-01T21:47:11;98184.66;;;-7.78;68.57
74913;BME280;63878;55.624;37.304;2023-03-01T21:57:11;98181.66;;;-7.92;68.83
74913;BME280;63878;55.624;37.304;2023-03-01T22:07:12;98191.97;;;-7.95;69.26
74913;BME280;63878;55.624;37.304;2023-03-01T22:17:12;98195.00;;;-8.11;69.76
74913;BME280;63878;55.624;37.304;2023-03-01T22:27:13;98193.31;;;-8.12;69.92
74913;BME280;63878;55.624;37.304;2023-03-01T22:37:13;98185.00;;;-8.20;70.67
74913;BME280;63878;55.624;37.304;2023-03-01T22:47:14;98200.38;;;-8.20;70.61
74913;BME280;63878;55.624;37.304;2023-03-01T22:57:14;98206.63;;;-7.99;70.59
74913;BME280;63878;55.624;37.304;2023-03-01T23:07:15;98221.88;;;-7.96;69.94
74913;BME280;63878;55.624;37.304;2023-03-01T23:17:16;98210.56;;;-7.89;69.30
74913;BME280;63878;55.624;37.304;2023-03-01T23:27:16;98220.47;;;-7.77;68.86
74913;BME280;63878;55.624;37.304;2023-03-01T23:37:17;98206.03;;;-7.79;69.76
74913;BME280;63878;55.624;37.304;2023-03-01T23:47:18;98225.53;;;-7.73;69.97
74913;BME280;63878;55.624;37.304;2023-03-01T23:57:18;98209.09;;;-7.66;69.71
